createdAt,value
2024-01-15T16:23:40.122Z,75006.84
2024-01-15T16:24:54.275Z,75010.97
2024-01-15T16:27:22.921Z,75015.09
2024-01-15T16:29:49.672Z,75010.97
2024-01-15T16:32:16.501Z,75006.84
2024-01-15T16:34:43.449Z,75013.03
2024-01-15T16:37:10.719Z,75019.22
2024-01-15T16:39:37.590Z,75008.91
2024-01-15T16:42:05.187Z,75006.84
2024-01-15T16:44:31.970Z,75006.84
2024-01-15T16:47:03.656Z,75004.75
2024-01-15T16:49:32.647Z,75006.84
2024-01-15T16:51:59.280Z,75004.75
2024-01-15T16:54:25.833Z,75004.75
2024-01-15T16:56:52.458Z,75006.84
2024-01-15T16:59:19.165Z,75010.97
2024-01-15T17:01:46.010Z,75017.16
2024-01-15T17:04:12.608Z,75015.09
2024-01-15T17:06:41.266Z,75023.38
2024-01-15T17:09:08.962Z,75015.09
2024-01-15T17:11:35.580Z,75019.22
2024-01-15T17:14:02.225Z,75021.31
2024-01-15T17:16:28.914Z,75033.72
2024-01-15T17:18:58.416Z,75021.31
2024-01-15T17:21:25.271Z,75031.63
2024-01-15T17:23:55.308Z,75035.78
2024-01-15T17:26:22.135Z,75037.84
2024-01-15T17:28:50.286Z,75039.91
2024-01-15T17:31:17.611Z,75046.09
2024-01-15T17:33:46.811Z,75058.50
2024-01-15T17:36:13.877Z,75066.78
2024-01-15T17:38:40.562Z,75070.91
2024-01-15T17:41:07.373Z,75066.78
2024-01-15T17:43:37.373Z,75068.84
2024-01-15T17:46:06.804Z,75075.06
2024-01-15T17:48:34.928Z,75077.13
2024-01-15T17:51:02.323Z,75085.38
2024-01-15T17:53:32.116Z,75093.66
2024-01-15T17:55:58.811Z,75091.59
2024-01-15T17:58:25.658Z,75089.53
2024-01-15T18:00:55.229Z,75099.88
2024-01-15T18:03:21.875Z,75099.88
2024-01-15T18:05:48.625Z,75093.66
2024-01-15T18:08:16.628Z,75093.66
2024-01-15T18:10:43.568Z,75095.72
2024-01-15T18:13:10.527Z,75101.94
2024-01-15T18:15:38.591Z,75122.59
2024-01-15T18:18:08.439Z,75118.47
2024-01-15T18:20:37.490Z,75118.47
2024-01-15T18:23:04.892Z,75118.47
2024-01-15T18:25:31.934Z,75108.13
2024-01-15T18:27:58.539Z,75122.59
2024-01-15T18:30:25.151Z,75122.59
2024-01-15T18:32:52.289Z,75126.75
2024-01-15T18:35:19.405Z,75118.47
2024-01-15T18:37:47.180Z,75106.06
2024-01-15T18:40:14.506Z,75110.19
2024-01-15T19:11:03.214Z,75116.41
2024-01-15T19:13:32.213Z,75128.81
2024-01-15T19:16:23.619Z,75118.47
2024-01-15T19:18:51.927Z,75122.59
2024-01-15T19:21:22.884Z,75122.59
2024-01-15T19:23:49.925Z,75120.53
2024-01-15T19:26:21.590Z,75118.47
2024-01-15T19:28:53.525Z,75122.59
2024-01-15T19:31:22.727Z,75128.81
2024-01-15T19:33:49.934Z,75132.94
2024-01-15T19:36:24.089Z,75137.06
2024-01-15T19:38:57.186Z,75135.00
2024-01-15T19:41:24.091Z,75126.75
2024-01-15T19:43:56.073Z,75130.88
2024-01-15T19:46:23.745Z,75130.88
2024-01-15T19:48:52.715Z,75122.59
2024-01-15T19:51:20.236Z,75126.75
2024-01-15T19:53:49.079Z,75139.16
2024-01-15T19:56:18.554Z,75126.75
2024-01-15T19:58:45.889Z,75141.22
2024-01-15T20:01:13.812Z,75149.47
2024-01-15T20:03:45.665Z,75155.69
2024-01-15T20:06:16.007Z,75172.22
2024-01-15T20:08:44.774Z,75180.50
2024-01-15T20:11:14.576Z,75201.16
2024-01-15T20:13:43.041Z,75201.16
2024-01-15T20:16:14.605Z,75205.28
2024-01-15T20:18:45.192Z,75215.63
2024-01-15T20:21:12.389Z,75225.97
2024-01-15T20:23:45.979Z,75230.09
2024-01-15T20:26:17.765Z,75232.19
2024-01-15T20:28:47.908Z,75230.09
2024-01-15T20:31:15.055Z,75236.31
2024-01-15T20:33:42.267Z,75234.25
2024-01-15T20:36:13.532Z,75246.66
2024-01-15T20:38:40.916Z,75256.97
2024-01-15T20:41:08.513Z,75263.19
2024-01-15T20:43:36.091Z,75259.06
2024-01-15T20:46:03.349Z,75261.13
2024-01-15T20:48:30.445Z,75271.47
2024-01-15T20:50:59.362Z,75277.66
2024-01-15T20:53:29.494Z,75283.84
2024-01-15T20:55:56.146Z,75281.78
2024-01-15T20:58:26.158Z,75283.84
2024-01-15T21:00:53.345Z,75283.84
2024-01-15T21:03:20.520Z,75288.00
2024-01-15T21:05:47.683Z,75298.34
2024-01-15T21:08:18.754Z,75288.00
2024-01-15T21:10:45.796Z,75298.34
2024-01-15T21:13:12.686Z,75296.25
2024-01-15T21:15:40.091Z,75306.59
2024-01-15T21:18:07.393Z,75296.25
2024-01-15T21:20:34.801Z,75290.06
2024-01-15T21:23:01.965Z,75288.00
2024-01-15T21:25:28.727Z,75279.72
2024-01-15T21:27:55.638Z,75279.72
2024-01-15T21:30:23.375Z,75273.53
2024-01-15T21:32:50.394Z,75273.53
2024-01-15T21:35:19.162Z,75263.19
2024-01-15T21:37:46.073Z,75273.53
2024-01-15T21:40:15.648Z,75275.59
2024-01-15T21:42:42.484Z,75279.72
2024-01-15T21:45:09.940Z,75267.31
2024-01-15T21:47:39.379Z,75269.38
2024-01-15T21:50:07.370Z,75275.59
2024-01-15T21:52:34.115Z,75275.59
2024-01-15T21:55:03.108Z,75277.66
2024-01-15T21:57:31.129Z,75283.84
2024-01-15T21:59:57.965Z,75283.84
2024-01-15T22:02:37.586Z,75288.00
2024-01-15T22:05:04.707Z,75290.06
2024-01-15T22:07:31.528Z,75304.53
2024-01-15T22:09:58.348Z,75312.81
2024-01-15T22:12:25.235Z,75321.06
2024-01-15T22:14:52.030Z,75331.41
2024-01-15T22:17:19.666Z,75327.28
2024-01-15T22:19:55.373Z,75325.22
2024-01-15T22:22:22.493Z,75335.53
2024-01-15T22:24:49.324Z,75339.69
2024-01-15T22:27:16.157Z,75325.22
2024-01-15T22:29:43.027Z,75329.34
2024-01-15T22:32:09.942Z,75321.06
2024-01-15T22:34:36.725Z,75321.06
2024-01-15T22:37:04.853Z,75329.34
2024-01-15T22:39:31.632Z,75333.47
2024-01-15T22:41:58.244Z,75350.03
2024-01-15T22:44:25.059Z,75337.63
2024-01-15T22:46:51.919Z,75345.88
2024-01-15T22:49:22.376Z,75350.03
2024-01-15T22:51:49.310Z,75362.44
2024-01-15T22:54:16.051Z,75370.69
2024-01-15T22:56:42.773Z,75362.44
2024-01-15T22:59:09.536Z,75374.84
2024-01-15T23:01:39.308Z,75374.84
2024-01-15T23:04:05.974Z,75383.09
2024-01-15T23:06:32.718Z,75397.56
2024-01-15T23:08:59.562Z,75403.78
2024-01-15T23:11:26.674Z,75407.91
2024-01-15T23:13:54.018Z,75407.91
2024-01-15T23:16:21.036Z,75405.84
2024-01-15T23:18:50.473Z,75399.63
2024-01-15T23:21:18.187Z,75407.91
2024-01-15T23:23:45.046Z,75409.97
2024-01-15T23:26:14.985Z,75407.91
2024-01-15T23:28:41.820Z,75407.91
2024-01-15T23:31:11.566Z,75420.31
2024-01-15T23:33:42.027Z,75409.97
2024-01-15T23:36:10.094Z,75416.19
2024-01-15T23:38:47.518Z,75407.91
2024-01-15T23:41:22.148Z,75412.03
2024-01-15T23:43:49.468Z,75401.72
2024-01-15T23:46:20.928Z,75407.91
2024-01-15T23:48:50.147Z,75409.97
2024-01-15T23:51:17.073Z,75416.19
2024-01-15T23:53:43.936Z,75409.97
2024-01-15T23:56:15.553Z,75420.31
2024-01-15T23:58:42.402Z,75428.59
